Time;durP1;ratioP1;P1;durP2;ratioP2;P2;SDS_P1;SDS_P2;PMS_P1;PMS_P2;Temp;Humidity;BMP_temperature;BMP_pressure;BME280_temperature;BME280_humidity;BME280_pressure;Samples;Min_cycle;Max_cycle;Signal;HPM_P1;HPM_P2
2022/09/17 00:01:30;;;;;;;17.73;2.00;;;;;;;;;;6223891;22;20019;-86
2022/09/17 00:04:21;;;;;;;16.85;1.95;;;;;;;;;;6262011;22;20019;-84
2022/09/17 00:06:49;;;;;;;15.27;2.47;;;;;;;;;;6282993;22;20020;-85
2022/09/17 00:09:17;;;;;;;14.73;2.13;;;;;;;;;;6282639;22;20015;-86
2022/09/17 00:12:25;;;;;;;14.77;1.83;;;;;;;;;;6283449;22;20094;-86
2022/09/17 00:14:59;;;;;;;14.05;2.45;;;;;;;;;;6283223;22;20460;-86
2022/09/17 00:17:27;;;;;;;13.95;1.92;;;;;;;;;;6281537;22;20025;-85
2022/09/17 00:19:55;;;;;;;13.70;2.35;;;;;;;;;;6282443;22;20019;-85
2022/09/17 00:22:23;;;;;;;13.88;2.00;;;;;;;;;;6282449;22;20022;-86
2022/09/17 00:25:15;;;;;;;19.48;2.25;;;;;;;;;;6262156;22;20008;-86
2022/09/17 00:27:43;;;;;;;21.83;2.25;;;;;;;;;;6281468;22;20015;-85
2022/09/17 00:30:12;;;;;;;28.70;2.53;;;;;;;;;;6230333;22;20046;-85
2022/09/17 00:32:39;;;;;;;18.33;2.38;;;;;;;;;;6255707;22;20019;-85
2022/09/17 00:35:07;;;;;;;22.88;2.70;;;;;;;;;;6256477;22;20016;-85
2022/09/17 00:37:35;;;;;;;22.80;2.88;;;;;;;;;;6282045;22;20521;-86
2022/09/17 00:40:03;;;;;;;16.95;2.42;;;;;;;;;;6282684;22;20069;-85
2022/09/17 00:42:31;;;;;;;18.20;2.30;;;;;;;;;;6283431;22;20024;-85
2022/09/17 00:44:59;;;;;;;14.55;1.98;;;;;;;;;;6283175;22;20035;-85
2022/09/17 00:47:38;;;;;;;15.88;2.15;;;;;;;;;;6280734;22;20472;-85
2022/09/17 00:50:08;;;;;;;17.33;2.25;;;;;;;;;;6245528;22;20355;-85
2022/09/17 00:52:40;;;;;;;18.00;3.35;;;;;;;;;;6282895;22;20019;-85
2022/09/17 00:55:30;;;;;;;19.08;2.38;;;;;;;;;;6282333;22;20022;-86
2022/09/17 00:58:25;;;;;;;20.08;1.98;;;;;;;;;;6261699;22;20129;-85
2022/09/17 01:00:53;;;;;;;17.10;3.03;;;;;;;;;;6282551;22;20012;-86
2022/09/17 01:03:21;;;;;;;20.48;2.22;;;;;;;;;;6244889;22;20073;-86
2022/09/17 01:06:12;;;;;;;13.60;1.88;;;;;;;;;;6282330;22;20097;-85
2022/09/17 01:08:57;;;;;;;19.02;3.28;;;;;;;;;;6280428;22;20016;-87
2022/09/17 01:11:53;;;;;;;21.80;4.00;;;;;;;;;;6282235;22;20015;-85
2022/09/17 01:14:24;;;;;;;14.85;2.25;;;;;;;;;;6282313;22;20046;-86
2022/09/17 01:17:29;;;;;;;16.83;2.25;;;;;;;;;;6283678;22;20091;-85
2022/09/17 01:20:21;;;;;;;13.35;1.70;;;;;;;;;;6282801;22;20012;-85
2022/09/17 01:23:06;;;;;;;22.42;2.05;;;;;;;;;;6283133;22;20035;-85
2022/09/17 01:26:08;;;;;;;18.48;2.00;;;;;;;;;;6282774;22;20020;-85
2022/09/17 01:28:37;;;;;;;11.95;1.63;;;;;;;;;;6256215;22;20015;-86
2022/09/17 01:31:16;;;;;;;13.10;1.55;;;;;;;;;;6256162;22;20068;-84
2022/09/17 01:34:13;;;;;;;10.15;2.10;;;;;;;;;;6257242;22;20089;-85
2022/09/17 01:37:04;;;;;;;12.98;1.73;;;;;;;;;;6281218;22;20016;-85
2022/09/17 01:40:40;;;;;;;17.23;1.92;;;;;;;;;;6281451;22;20037;-85
2022/09/17 01:43:16;;;;;;;19.05;2.10;;;;;;;;;;6283317;22;20027;-86
2022/09/17 01:46:03;;;;;;;12.35;2.13;;;;;;;;;;6281525;22;20016;-85
2022/09/17 01:48:34;;;;;;;19.15;2.42;;;;;;;;;;6273607;22;20049;-85
2022/09/17 01:51:06;;;;;;;16.88;2.45;;;;;;;;;;6283123;22;20019;-84
2022/09/17 01:53:57;;;;;;;13.02;1.95;;;;;;;;;;6256451;22;20035;-85
2022/09/17 01:56:37;;;;;;;14.35;2.35;;;;;;;;;;6283298;22;20077;-85
2022/09/17 01:59:31;;;;;;;18.98;2.28;;;;;;;;;;6283579;22;20035;-84
2022/09/17 02:02:26;;;;;;;16.15;2.33;;;;;;;;;;6255875;22;20039;-84
2022/09/17 02:05:41;;;;;;;13.48;1.80;;;;;;;;;;6261407;22;20089;-85
2022/09/17 02:08:25;;;;;;;16.10;2.00;;;;;;;;;;6283150;22;20100;-86
2022/09/17 02:11:10;;;;;;;12.73;1.55;;;;;;;;;;6279960;22;20019;-85
2022/09/17 02:13:49;;;;;;;12.88;2.10;;;;;;;;;;6245099;22;20077;-85
2022/09/17 02:16:28;;;;;;;20.13;2.45;;;;;;;;;;6282741;22;20015;-85
2022/09/17 02:19:28;;;;;;;19.98;2.17;;;;;;;;;;6281736;22;20414;-85
2022/09/17 02:22:22;;;;;;;15.88;1.90;;;;;;;;;;6281954;22;20538;-85
2022/09/17 02:28:41;;;;;;;11.85;1.55;;;;;;;;;;6282738;22;20023;-85
2022/09/17 02:31:10;;;;;;;12.32;2.00;;;;;;;;;;6282880;22;20340;-86
2022/09/17 03:25:19;;;;;;;19.30;2.10;;;;;;;;;;5913543;24;20021;-84
2022/09/17 03:29:32;;;;;;;12.93;2.10;;;;;;;;;;5893786;24;20397;-85
2022/09/17 03:33:10;;;;;;;17.95;2.00;;;;;;;;;;5894869;24;20034;-83
2022/09/17 03:36:17;;;;;;;18.80;1.73;;;;;;;;;;5873776;24;20025;-86
2022/09/17 03:38:59;;;;;;;16.45;2.03;;;;;;;;;;5904964;24;20175;-83
2022/09/17 03:42:17;;;;;;;15.68;1.80;;;;;;;;;;6069162;23;20090;-84
2022/09/17 03:45:23;;;;;;;12.10;1.90;;;;;;;;;;6048295;23;20387;-81
2022/09/17 03:48:05;;;;;;;15.77;1.67;;;;;;;;;;6072513;23;20031;-81
2022/09/17 03:50:47;;;;;;;11.10;1.70;;;;;;;;;;6072061;23;20029;-82
2022/09/17 03:53:55;;;;;;;14.07;1.60;;;;;;;;;;6210355;22;20020;-83
2022/09/17 03:56:23;;;;;;;14.85;1.50;;;;;;;;;;6285117;22;20016;-82
2022/09/17 03:58:59;;;;;;;10.73;2.10;;;;;;;;;;6282903;22;20123;-82
2022/09/17 04:01:31;;;;;;;9.27;1.63;;;;;;;;;;6281385;22;20016;-82
2022/09/17 04:03:59;;;;;;;13.15;1.92;;;;;;;;;;6283569;22;20495;-82
2022/09/17 04:06:31;;;;;;;11.82;1.75;;;;;;;;;;6283363;22;20023;-82
2022/09/17 04:08:59;;;;;;;12.93;1.98;;;;;;;;;;6257065;22;20069;-82
2022/09/17 04:39:48;;;;;;;11.10;1.60;;;;;;;;;;6283839;22;20493;-82
2022/09/17 04:45:11;;;;;;;11.00;1.55;;;;;;;;;;6271771;22;20090;-82
2022/09/17 04:47:43;;;;;;;15.20;1.77;;;;;;;;;;6283268;22;20016;-83
2022/09/17 04:50:37;;;;;;;13.95;1.60;;;;;;;;;;6263486;22;20440;-82
2022/09/17 04:53:37;;;;;;;8.75;1.40;;;;;;;;;;6284016;22;20024;-82
2022/09/17 05:14:15;;;;;;;10.23;1.77;;;;;;;;;;6181393;23;20140;-82
2022/09/17 05:17:22;;;;;;;9.38;1.70;;;;;;;;;;6152699;23;20111;-82
2022/09/17 05:20:03;;;;;;;17.58;2.20;;;;;;;;;;6188705;23;20025;-82
2022/09/17 05:22:31;;;;;;;11.70;1.90;;;;;;;;;;6189206;23;20029;-82
2022/09/17 05:24:59;;;;;;;8.73;1.25;;;;;;;;;;6190010;23;20028;-82
2022/09/17 05:27:27;;;;;;;17.13;2.15;;;;;;;;;;6188824;23;20036;-82
2022/09/17 05:29:59;;;;;;;15.73;1.70;;;;;;;;;;6189163;23;20720;-82
2022/09/17 05:32:31;;;;;;;9.77;1.88;;;;;;;;;;6187791;23;20025;-82
2022/09/17 05:34:59;;;;;;;12.02;1.42;;;;;;;;;;6192367;22;20048;-82
2022/09/17 05:37:33;;;;;;;11.38;1.20;;;;;;;;;;6282206;22;20024;-82
2022/09/17 05:40:07;;;;;;;18.85;1.73;;;;;;;;;;6257945;22;20020;-82
2022/09/17 05:42:35;;;;;;;14.05;1.77;;;;;;;;;;6283541;22;20039;-82
2022/09/17 05:45:04;;;;;;;9.45;1.45;;;;;;;;;;6256031;22;20122;-82
2022/09/17 05:47:57;;;;;;;11.07;1.40;;;;;;;;;;6282244;22;20015;-82
2022/09/17 05:50:26;;;;;;;13.13;1.65;;;;;;;;;;6284149;22;20015;-82
2022/09/17 05:52:54;;;;;;;11.23;1.52;;;;;;;;;;6283454;22;20574;-82
2022/09/17 05:55:45;;;;;;;7.50;1.70;;;;;;;;;;6282638;22;20007;-82
2022/09/17 05:58:18;;;;;;;10.52;2.25;;;;;;;;;;6283729;22;20436;-82
2022/09/17 06:01:14;;;;;;;14.10;1.50;;;;;;;;;;6282457;22;20042;-82
2022/09/17 06:03:47;;;;;;;11.20;1.70;;;;;;;;;;6258487;22;20090;-82
2022/09/17 06:06:19;;;;;;;11.10;1.85;;;;;;;;;;6256711;22;20448;-82
2022/09/17 06:08:47;;;;;;;13.90;1.63;;;;;;;;;;6283598;22;20073;-82
2022/09/17 06:11:15;;;;;;;12.30;2.58;;;;;;;;;;6281925;22;20012;-82
2022/09/17 06:13:48;;;;;;;6.00;1.48;;;;;;;;;;6284255;22;20016;-82
2022/09/17 06:16:20;;;;;;;9.27;2.13;;;;;;;;;;6283284;22;20020;-82
2022/09/17 06:18:49;;;;;;;12.27;1.80;;;;;;;;;;6283495;22;20035;-82
2022/09/17 06:21:18;;;;;;;12.20;1.63;;;;;;;;;;6258363;22;20077;-82
2022/09/17 06:23:55;;;;;;;14.48;2.55;;;;;;;;;;6257246;22;20110;-82
2022/09/17 06:26:23;;;;;;;12.85;1.63;;;;;;;;;;6284693;22;20058;-82
2022/09/17 06:29:15;;;;;;;9.38;1.35;;;;;;;;;;6284389;22;20007;-82
2022/09/17 06:32:10;;;;;;;18.58;1.63;;;;;;;;;;6282541;22;20511;-82
2022/09/17 06:35:02;;;;;;;14.57;2.05;;;;;;;;;;6283997;22;20022;-82
2022/09/17 06:37:31;;;;;;;10.27;1.83;;;;;;;;;;6283897;22;20070;-82
2022/09/17 06:39:59;;;;;;;7.50;1.63;;;;;;;;;;6284728;22;20020;-83
2022/09/17 06:42:27;;;;;;;15.90;2.33;;;;;;;;;;6285929;22;20008;-82
2022/09/17 06:44:57;;;;;;;14.77;1.98;;;;;;;;;;6272080;22;20019;-83
2022/09/17 06:47:55;;;;;;;6.10;1.30;;;;;;;;;;6291462;22;20020;-82
2022/09/17 06:50:24;;;;;;;12.85;1.85;;;;;;;;;;6292930;22;20448;-82
2022/09/17 06:52:57;;;;;;;14.32;1.45;;;;;;;;;;6294353;22;20061;-82
2022/09/17 06:55:25;;;;;;;13.07;1.50;;;;;;;;;;6264716;22;20035;-84
2022/09/17 06:58:07;;;;;;;12.07;1.50;;;;;;;;;;6261283;22;20023;-83
2022/09/17 07:00:56;;;;;;;10.18;1.10;;;;;;;;;;6284206;22;20028;-83
2022/09/17 07:03:37;;;;;;;10.68;2.10;;;;;;;;;;6271042;22;20098;-82
2022/09/17 07:06:58;;;;;;;11.80;1.70;;;;;;;;;;6279593;22;20042;-84
2022/09/17 07:09:41;;;;;;;7.65;1.30;;;;;;;;;;6260854;22;20030;-84
2022/09/17 07:12:27;;;;;;;10.52;0.85;;;;;;;;;;6248633;22;20015;-84
2022/09/17 07:15:10;;;;;;;17.35;1.90;;;;;;;;;;6258847;22;20103;-83
2022/09/17 07:17:55;;;;;;;12.25;1.30;;;;;;;;;;6249065;22;20511;-83
2022/09/17 07:21:03;;;;;;;10.75;1.00;;;;;;;;;;6252276;22;20089;-84
2022/09/17 07:24:48;;;;;;;7.57;1.70;;;;;;;;;;6256939;22;20530;-83
2022/09/17 07:28:13;;;;;;;6.22;1.10;;;;;;;;;;6249055;22;20020;-84
2022/09/17 07:32:36;;;;;;;7.13;1.05;;;;;;;;;;6244847;23;20027;-85
2022/09/17 07:39:15;;;;;;;3.10;0.85;;;;;;;;;;6102808;23;20018;-85
2022/09/17 07:42:10;;;;;;;6.65;1.08;;;;;;;;;;6093218;23;20013;-84
2022/09/17 07:44:45;;;;;;;7.28;0.90;;;;;;;;;;6090831;23;20495;-84
2022/09/17 07:47:13;;;;;;;2.40;0.77;;;;;;;;;;6075705;23;20033;-83
2022/09/17 07:49:45;;;;;;;4.47;0.80;;;;;;;;;;6100144;23;20027;-83
2022/09/17 07:55:14;;;;;;;5.47;0.88;;;;;;;;;;6100902;23;20106;-83
2022/09/17 07:57:41;;;;;;;2.95;1.10;;;;;;;;;;6100622;23;20463;-82
2022/09/17 08:00:35;;;;;;;2.70;0.65;;;;;;;;;;6091263;23;20022;-84
2022/09/17 08:04:22;;;;;;;4.90;0.82;;;;;;;;;;6024285;23;20507;-86
2022/09/17 08:07:42;;;;;;;3.10;0.60;;;;;;;;;;6014021;23;20060;-84
2022/09/17 08:17:05;;;;;;;6.85;0.75;;;;;;;;;;6091747;23;20455;-86
2022/09/17 08:20:50;;;;;;;4.55;0.88;;;;;;;;;;6102323;23;20517;-84
2022/09/17 08:25:15;;;;;;;6.85;0.98;;;;;;;;;;6120366;23;20104;-83
2022/09/17 08:28:17;;;;;;;8.02;1.15;;;;;;;;;;6044684;23;20074;-88
2022/09/17 08:32:33;;;;;;;7.38;1.35;;;;;;;;;;6013121;23;20151;-85
2022/09/17 08:37:34;;;;;;;4.75;0.82;;;;;;;;;;6001144;23;20015;-84
2022/09/17 08:40:55;;;;;;;5.75;0.77;;;;;;;;;;6012908;23;20031;-84
2022/09/17 08:44:16;;;;;;;6.82;0.93;;;;;;;;;;6021016;23;20027;-88
2022/09/17 08:48:08;;;;;;;5.53;0.90;;;;;;;;;;6032428;23;20025;-84
2022/09/17 08:51:43;;;;;;;7.95;1.38;;;;;;;;;;5953116;24;20381;-84
2022/09/17 08:54:41;;;;;;;8.15;1.00;;;;;;;;;;5953011;24;20024;-85
2022/09/17 08:57:47;;;;;;;7.72;1.08;;;;;;;;;;5962673;23;20058;-88
2022/09/17 09:00:42;;;;;;;7.75;1.30;;;;;;;;;;6004506;23;20024;-84
2022/09/17 09:04:19;;;;;;;6.65;1.10;;;;;;;;;;6090342;23;20101;-84
2022/09/17 09:07:53;;;;;;;8.68;1.38;;;;;;;;;;6090141;23;20045;-84
2022/09/17 09:11:02;;;;;;;5.03;0.75;;;;;;;;;;6114846;23;20041;-84
2022/09/17 09:14:39;;;;;;;6.38;0.77;;;;;;;;;;6149243;23;20406;-85
2022/09/17 09:17:37;;;;;;;7.32;1.00;;;;;;;;;;6127912;23;20018;-88
2022/09/17 09:29:48;;;;;;;2.20;0.40;;;;;;;;;;6071137;23;20029;-85
2022/09/17 09:32:39;;;;;;;8.13;0.93;;;;;;;;;;6060063;23;20045;-84
2022/09/17 09:35:35;;;;;;;3.67;0.30;;;;;;;;;;6070190;23;20207;-88
2022/09/17 09:38:31;;;;;;;2.33;0.38;;;;;;;;;;6050058;23;20035;-87
2022/09/17 09:41:39;;;;;;;3.67;0.55;;;;;;;;;;6069254;23;20078;-84
2022/09/17 09:45:06;;;;;;;6.65;0.80;;;;;;;;;;6035348;23;20030;-84
2022/09/17 09:49:22;;;;;;;2.92;0.47;;;;;;;;;;5946112;24;20036;-85
2022/09/17 09:54:05;;;;;;;3.22;0.60;;;;;;;;;;5841234;24;20034;-85
2022/09/17 09:58:08;;;;;;;5.03;0.50;;;;;;;;;;5867237;24;20022;-84
2022/09/17 10:01:30;;;;;;;3.10;1.40;;;;;;;;;;5906898;24;20056;-84
2022/09/17 10:04:14;;;;;;;4.72;0.90;;;;;;;;;;5903619;24;20033;-83
2022/09/17 10:07:21;;;;;;;2.38;0.60;;;;;;;;;;5931212;24;20136;-88
2022/09/17 10:10:27;;;;;;;2.63;0.60;;;;;;;;;;5931207;24;20029;-88
2022/09/17 10:23:49;;;;;;;1.80;0.63;;;;;;;;;;5659384;22;15748926;-88
2022/09/17 10:26:34;;;;;;;5.22;0.75;;;;;;;;;;6321862;22;20076;-87
2022/09/17 10:29:18;;;;;;;2.55;0.50;;;;;;;;;;6297066;22;20351;-88
2022/09/17 10:32:16;;;;;;;3.22;0.45;;;;;;;;;;6274063;22;20065;-84
2022/09/17 10:36:00;;;;;;;2.88;0.40;;;;;;;;;;6284271;22;20027;-83
2022/09/17 10:38:48;;;;;;;5.57;0.57;;;;;;;;;;6291478;22;20022;-84
2022/09/17 10:41:29;;;;;;;3.35;0.70;;;;;;;;;;6295159;22;20396;-84
2022/09/17 10:45:17;;;;;;;4.10;1.23;;;;;;;;;;6309822;22;20055;-83
2022/09/17 10:48:28;;;;;;;2.92;0.52;;;;;;;;;;6321966;22;20426;-87
2022/09/17 10:52:43;;;;;;;5.30;1.13;;;;;;;;;;6297698;22;20070;-85
2022/09/17 10:56:09;;;;;;;5.45;0.60;;;;;;;;;;6185723;23;20024;-84
2022/09/17 10:59:44;;;;;;;5.82;0.70;;;;;;;;;;6186029;23;20039;-83
2022/09/17 11:03:07;;;;;;;3.90;0.70;;;;;;;;;;6195502;23;20353;-86
2022/09/17 11:06:20;;;;;;;3.42;0.52;;;;;;;;;;6173531;23;20017;-86
2022/09/17 11:20:21;;;;;;;3.53;0.70;;;;;;;;;;5098703;27;20553;-87
2022/09/17 11:23:12;;;;;;;3.38;0.85;;;;;;;;;;5061839;28;20048;-87
2022/09/17 11:26:02;;;;;;;7.13;2.00;;;;;;;;;;5067023;28;20503;-84
2022/09/17 11:29:19;;;;;;;5.80;1.20;;;;;;;;;;5069515;28;20040;-84
2022/09/17 11:32:52;;;;;;;7.55;1.63;;;;;;;;;;4980499;28;20046;-84
2022/09/17 11:36:01;;;;;;;3.10;0.73;;;;;;;;;;4984154;28;20042;-84
2022/09/17 11:39:59;;;;;;;2.45;0.65;;;;;;;;;;4984128;28;20475;-84
2022/09/17 11:43:23;;;;;;;2.40;0.88;;;;;;;;;;4984193;28;20570;-87
2022/09/17 11:47:28;;;;;;;6.25;1.00;;;;;;;;;;4959894;28;20051;-85
2022/09/17 11:51:29;;;;;;;5.13;0.80;;;;;;;;;;4961220;28;20519;-87
2022/09/17 11:55:06;;;;;;;3.42;0.60;;;;;;;;;;4960817;28;20054;-85
2022/09/17 11:58:48;;;;;;;3.63;0.77;;;;;;;;;;4959579;28;20051;-84
2022/09/17 12:01:47;;;;;;;4.40;1.00;;;;;;;;;;4960237;28;20384;-84
2022/09/17 12:04:48;;;;;;;2.03;0.70;;;;;;;;;;4946354;28;20225;-84
2022/09/17 12:07:51;;;;;;;2.30;0.55;;;;;;;;;;4958497;28;20047;-84
2022/09/17 12:11:08;;;;;;;4.25;0.80;;;;;;;;;;5041514;28;20053;-86
2022/09/17 12:14:14;;;;;;;5.60;1.02;;;;;;;;;;5009444;28;20139;-84
2022/09/17 12:17:19;;;;;;;5.60;1.95;;;;;;;;;;5055969;28;20056;-84
2022/09/17 12:20:14;;;;;;;4.05;0.80;;;;;;;;;;5068550;28;20143;-84
2022/09/17 12:23:09;;;;;;;6.45;1.27;;;;;;;;;;5053876;28;20109;-84
2022/09/17 12:26:45;;;;;;;4.25;0.90;;;;;;;;;;5067546;28;20041;-85
2022/09/17 12:30:05;;;;;;;2.47;1.00;;;;;;;;;;5068183;28;20457;-84
2022/09/17 12:33:36;;;;;;;5.93;1.10;;;;;;;;;;5056670;28;20059;-87
2022/09/17 12:36:26;;;;;;;2.90;1.00;;;;;;;;;;5067180;28;20041;-87
2022/09/17 12:39:08;;;;;;;5.30;1.08;;;;;;;;;;5070581;28;20123;-87
2022/09/17 12:42:19;;;;;;;3.75;0.85;;;;;;;;;;5069284;28;20043;-87
2022/09/17 12:45:07;;;;;;;4.40;0.93;;;;;;;;;;5068755;28;20060;-87
2022/09/17 12:48:01;;;;;;;4.25;0.98;;;;;;;;;;5066821;28;20037;-87
2022/09/17 12:51:11;;;;;;;7.18;1.23;;;;;;;;;;5069818;28;20060;-87
2022/09/17 12:54:07;;;;;;;4.47;0.60;;;;;;;;;;5050291;28;20155;-87
2022/09/17 12:57:09;;;;;;;4.85;0.75;;;;;;;;;;5069091;28;20051;-87
2022/09/17 12:59:59;;;;;;;5.40;1.42;;;;;;;;;;5049032;28;20066;-87
2022/09/17 13:02:46;;;;;;;7.50;1.48;;;;;;;;;;5051426;28;20048;-87
2022/09/17 13:05:40;;;;;;;7.18;1.50;;;;;;;;;;5065686;28;20074;-87
2022/09/17 13:09:10;;;;;;;5.50;1.27;;;;;;;;;;5054275;28;20569;-84
2022/09/17 13:13:24;;;;;;;8.75;1.40;;;;;;;;;;5055365;28;20052;-84
2022/09/17 13:16:32;;;;;;;5.90;1.00;;;;;;;;;;5064643;28;20066;-82
2022/09/17 13:19:13;;;;;;;7.63;1.48;;;;;;;;;;5066722;28;20408;-84
2022/09/17 13:22:05;;;;;;;8.98;1.60;;;;;;;;;;5046996;28;20389;-84
2022/09/17 13:25:10;;;;;;;6.13;0.90;;;;;;;;;;5033855;28;20043;-84
2022/09/17 13:28:34;;;;;;;6.53;1.10;;;;;;;;;;5050578;28;20028;-84
2022/09/17 13:32:33;;;;;;;5.72;1.90;;;;;;;;;;5057130;28;20040;-85
2022/09/17 13:35:36;;;;;;;6.85;1.35;;;;;;;;;;5019140;28;20140;-84
2022/09/17 13:38:21;;;;;;;6.28;0.95;;;;;;;;;;4990983;28;20060;-84
2022/09/17 13:41:20;;;;;;;5.93;1.08;;;;;;;;;;5020452;28;20033;-84
2022/09/17 13:44:27;;;;;;;6.85;1.30;;;;;;;;;;5028448;28;20076;-84
2022/09/17 13:47:30;;;;;;;7.18;1.90;;;;;;;;;;5019664;28;20045;-84
2022/09/17 13:50:32;;;;;;;4.07;1.10;;;;;;;;;;5014584;28;20068;-84
2022/09/17 13:53:39;;;;;;;7.20;1.80;;;;;;;;;;5020821;28;20041;-84
2022/09/17 13:56:48;;;;;;;8.05;1.40;;;;;;;;;;5025139;28;20096;-83
2022/09/17 13:59:35;;;;;;;10.05;1.52;;;;;;;;;;5023670;28;20073;-84
2022/09/17 14:02:51;;;;;;;3.47;0.80;;;;;;;;;;5012461;28;20045;-84
2022/09/17 14:06:20;;;;;;;11.18;1.25;;;;;;;;;;5035765;28;20139;-84
2022/09/17 14:09:31;;;;;;;4.47;1.05;;;;;;;;;;5050980;28;20492;-84
2022/09/17 14:12:46;;;;;;;11.45;1.20;;;;;;;;;;5066192;28;20365;-84
2022/09/17 14:16:35;;;;;;;2.45;0.70;;;;;;;;;;5051298;28;20037;-84
2022/09/17 14:19:15;;;;;;;3.70;0.60;;;;;;;;;;5048708;28;20047;-86
2022/09/17 14:21:59;;;;;;;3.88;1.08;;;;;;;;;;5032499;28;20044;-87
2022/09/17 14:24:36;;;;;;;5.07;0.82;;;;;;;;;;5050476;28;20044;-87
2022/09/17 14:27:28;;;;;;;1.70;0.60;;;;;;;;;;5066309;28;20079;-87
2022/09/17 14:30:17;;;;;;;4.40;0.80;;;;;;;;;;5061080;28;20112;-87
2022/09/17 14:32:58;;;;;;;2.63;0.95;;;;;;;;;;5066766;28;20116;-87
2022/09/17 14:35:30;;;;;;;2.40;1.00;;;;;;;;;;5066934;28;20036;-86
2022/09/17 14:38:38;;;;;;;6.35;2.10;;;;;;;;;;5066882;28;20032;-86
2022/09/17 14:41:16;;;;;;;4.70;1.67;;;;;;;;;;5067698;28;20075;-87
2022/09/17 14:44:06;;;;;;;4.65;1.67;;;;;;;;;;5066143;28;20046;-87
2022/09/17 14:46:41;;;;;;;3.88;0.98;;;;;;;;;;5061052;28;20105;-87
2022/09/17 14:49:22;;;;;;;5.40;1.60;;;;;;;;;;5047798;28;20052;-86
2022/09/17 14:51:57;;;;;;;4.40;1.00;;;;;;;;;;5048735;28;20114;-86
2022/09/17 14:54:32;;;;;;;3.70;1.10;;;;;;;;;;5064883;28;20041;-87
2022/09/17 14:57:24;;;;;;;2.00;0.90;;;;;;;;;;5063693;28;20040;-87
2022/09/17 15:00:23;;;;;;;2.55;0.70;;;;;;;;;;5061833;28;20428;-86
2022/09/17 15:02:59;;;;;;;2.47;0.73;;;;;;;;;;5043777;28;20518;-86
2022/09/17 15:05:32;;;;;;;2.00;0.70;;;;;;;;;;5051481;28;20040;-86
2022/09/17 15:08:14;;;;;;;1.98;0.52;;;;;;;;;;5043703;28;20044;-87
2022/09/17 15:10:53;;;;;;;2.65;0.60;;;;;;;;;;5048202;28;20047;-86
2022/09/17 15:13:27;;;;;;;2.60;0.43;;;;;;;;;;5048651;28;20052;-86
2022/09/17 15:16:25;;;;;;;2.75;0.60;;;;;;;;;;5064210;28;20444;-86
2022/09/17 15:19:24;;;;;;;2.38;0.60;;;;;;;;;;5066014;28;20035;-86
2022/09/17 15:25:16;;;;;;;4.60;0.98;;;;;;;;;;5063545;28;20524;-86
2022/09/17 15:27:52;;;;;;;2.17;0.70;;;;;;;;;;5065073;28;20128;-86
2022/09/17 15:31:01;;;;;;;3.47;0.88;;;;;;;;;;5048797;28;20044;-87
2022/09/17 15:33:31;;;;;;;1.70;0.70;;;;;;;;;;5065811;28;20575;-85
2022/09/17 15:36:26;;;;;;;2.83;0.80;;;;;;;;;;5064600;28;20074;-87
2022/09/17 15:39:49;;;;;;;4.75;1.15;;;;;;;;;;5055820;28;20021;-86
2022/09/17 15:42:31;;;;;;;5.13;1.27;;;;;;;;;;5029050;28;20068;-86
2022/09/17 15:45:36;;;;;;;4.55;0.80;;;;;;;;;;5066961;28;20110;-86
2022/09/17 15:48:26;;;;;;;3.50;0.88;;;;;;;;;;4973066;28;20054;-86
2022/09/17 15:50:58;;;;;;;3.10;0.70;;;;;;;;;;4978246;28;20572;-86
2022/09/17 15:53:36;;;;;;;5.30;1.40;;;;;;;;;;4965307;28;21097;-86
2022/09/17 15:56:15;;;;;;;4.75;0.80;;;;;;;;;;4975500;28;20049;-86
2022/09/17 15:58:45;;;;;;;3.45;0.70;;;;;;;;;;4971717;28;20050;-86
2022/09/17 16:01:13;;;;;;;3.33;0.90;;;;;;;;;;4968460;28;20077;-86
2022/09/17 16:03:43;;;;;;;3.42;0.82;;;;;;;;;;4986791;28;20149;-87
2022/09/17 16:06:24;;;;;;;4.30;1.15;;;;;;;;;;4985736;28;20160;-87
2022/09/17 16:09:55;;;;;;;5.57;1.10;;;;;;;;;;4987279;28;20696;-83
2022/09/17 16:12:25;;;;;;;4.50;0.82;;;;;;;;;;4950093;28;20147;-83
2022/09/17 16:14:55;;;;;;;5.78;0.90;;;;;;;;;;4933338;29;20038;-84
2022/09/17 16:17:44;;;;;;;4.18;1.00;;;;;;;;;;4949227;28;20147;-84
2022/09/17 16:20:37;;;;;;;3.58;0.75;;;;;;;;;;4950844;28;20055;-83
2022/09/17 16:23:54;;;;;;;4.47;1.10;;;;;;;;;;4925362;28;20051;-85
2022/09/17 16:26:27;;;;;;;1.88;0.60;;;;;;;;;;4987451;28;20045;-87
2022/09/17 16:29:05;;;;;;;2.97;0.85;;;;;;;;;;4999402;28;20046;-82
2022/09/17 16:31:33;;;;;;;4.60;0.90;;;;;;;;;;4990157;28;20143;-83
2022/09/17 16:34:09;;;;;;;2.10;1.00;;;;;;;;;;4990336;28;20053;-86
2022/09/17 16:36:38;;;;;;;5.03;0.98;;;;;;;;;;5001205;28;20056;-85
2022/09/17 16:39:13;;;;;;;1.05;0.50;;;;;;;;;;5000979;28;20065;-86
2022/09/17 16:42:05;;;;;;;2.97;0.80;;;;;;;;;;5003771;28;20046;-86
2022/09/17 16:44:50;;;;;;;2.33;0.60;;;;;;;;;;5000332;28;20033;-87
2022/09/17 16:48:02;;;;;;;3.78;0.90;;;;;;;;;;4992522;28;20081;-83
2022/09/17 16:50:43;;;;;;;2.63;1.13;;;;;;;;;;5064654;28;20373;-87
2022/09/17 16:53:26;;;;;;;2.75;0.88;;;;;;;;;;5036002;28;20099;-85
2022/09/17 16:56:19;;;;;;;1.88;0.60;;;;;;;;;;5050979;28;20083;-85
2022/09/17 16:59:02;;;;;;;4.70;0.80;;;;;;;;;;5067811;28;20044;-84
2022/09/17 17:01:36;;;;;;;2.70;0.80;;;;;;;;;;5023501;28;20080;-83
2022/09/17 17:04:03;;;;;;;1.67;0.65;;;;;;;;;;5044549;28;20089;-83
2022/09/17 17:06:31;;;;;;;2.13;0.75;;;;;;;;;;5064901;28;20041;-83
2022/09/17 17:08:59;;;;;;;2.30;0.90;;;;;;;;;;5064764;28;20029;-83
2022/09/17 17:11:27;;;;;;;2.92;0.82;;;;;;;;;;5064506;28;20044;-83
2022/09/17 17:14:04;;;;;;;1.92;0.98;;;;;;;;;;5062656;28;20037;-83
2022/09/17 17:16:55;;;;;;;2.63;0.70;;;;;;;;;;5060128;28;20029;-84
2022/09/17 17:19:24;;;;;;;3.08;0.60;;;;;;;;;;5064496;28;20040;-83
2022/09/17 17:21:57;;;;;;;3.50;0.82;;;;;;;;;;5064152;28;20090;-83
2022/09/17 17:24:25;;;;;;;2.08;1.33;;;;;;;;;;5063972;28;20067;-83
2022/09/17 17:26:53;;;;;;;3.03;0.80;;;;;;;;;;5064407;28;20396;-83
2022/09/17 17:29:21;;;;;;;2.05;0.90;;;;;;;;;;5065330;28;20075;-83
2022/09/17 17:35:06;;;;;;;2.47;0.80;;;;;;;;;;5064896;28;20036;-83
2022/09/17 17:37:33;;;;;;;3.75;0.80;;;;;;;;;;5061971;28;20488;-84
2022/09/17 17:40:25;;;;;;;2.25;0.80;;;;;;;;;;5063448;28;20044;-83
2022/09/17 17:42:57;;;;;;;3.58;0.70;;;;;;;;;;5050883;28;20492;-83
2022/09/17 17:45:25;;;;;;;2.13;0.80;;;;;;;;;;5066784;28;20100;-83
2022/09/17 17:47:53;;;;;;;2.45;0.70;;;;;;;;;;5063385;28;20098;-83
2022/09/17 17:50:21;;;;;;;2.53;0.70;;;;;;;;;;5064814;28;20082;-83
2022/09/17 17:53:13;;;;;;;3.35;1.10;;;;;;;;;;5063124;28;20048;-83
2022/09/17 17:55:41;;;;;;;4.65;0.88;;;;;;;;;;5063724;28;20040;-83
2022/09/17 17:58:09;;;;;;;2.63;0.98;;;;;;;;;;5061149;28;20523;-83
2022/09/17 18:00:47;;;;;;;1.67;0.73;;;;;;;;;;5066040;28;20503;-83
2022/09/17 18:03:15;;;;;;;2.22;0.90;;;;;;;;;;5063597;28;20052;-83
2022/09/17 18:05:43;;;;;;;1.75;0.90;;;;;;;;;;5063254;28;20047;-85
2022/09/17 18:08:43;;;;;;;4.25;1.13;;;;;;;;;;5028102;28;20037;-84
2022/09/17 18:11:26;;;;;;;1.95;0.95;;;;;;;;;;5042350;28;20088;-84
2022/09/17 18:14:13;;;;;;;3.88;1.73;;;;;;;;;;5063366;28;20043;-86
2022/09/17 18:16:41;;;;;;;3.05;1.40;;;;;;;;;;5048241;28;20598;-86
2022/09/17 18:19:10;;;;;;;3.58;1.65;;;;;;;;;;5064108;28;20072;-86
2022/09/17 18:21:37;;;;;;;8.10;2.20;;;;;;;;;;5031619;28;20049;-87
2022/09/17 18:24:05;;;;;;;5.95;1.85;;;;;;;;;;5067240;28;20514;-87
2022/09/17 18:26:41;;;;;;;3.25;1.67;;;;;;;;;;5066843;28;20044;-86
2022/09/17 18:29:10;;;;;;;6.43;1.63;;;;;;;;;;5063362;28;20123;-85
2022/09/17 18:31:37;;;;;;;3.50;1.45;;;;;;;;;;5063706;28;20543;-85
2022/09/17 18:34:31;;;;;;;3.90;1.77;;;;;;;;;;5065117;28;20081;-85
2022/09/17 18:36:59;;;;;;;4.10;1.60;;;;;;;;;;5065413;28;20127;-85
2022/09/17 18:39:28;;;;;;;5.28;1.50;;;;;;;;;;5048589;28;20068;-85
2022/09/17 18:42:15;;;;;;;5.45;1.70;;;;;;;;;;5060842;28;20047;-86
2022/09/17 18:44:43;;;;;;;4.78;1.38;;;;;;;;;;5064460;28;20041;-86
2022/09/17 18:47:11;;;;;;;4.53;1.70;;;;;;;;;;5061075;28;20040;-86
2022/09/17 18:49:39;;;;;;;5.95;1.75;;;;;;;;;;5059195;28;20051;-86
2022/09/17 18:52:11;;;;;;;5.20;2.00;;;;;;;;;;5043453;28;20078;-86
2022/09/17 18:54:39;;;;;;;8.25;2.00;;;;;;;;;;5064137;28;20040;-84
2022/09/17 18:57:07;;;;;;;4.78;1.92;;;;;;;;;;5062775;28;20392;-86
2022/09/17 18:59:35;;;;;;;4.32;1.80;;;;;;;;;;5047962;28;20090;-85
2022/09/17 19:02:03;;;;;;;3.70;1.40;;;;;;;;;;5061292;28;20036;-86
2022/09/17 19:04:31;;;;;;;5.00;1.40;;;;;;;;;;5059846;28;20048;-85
2022/09/17 19:06:59;;;;;;;4.40;1.45;;;;;;;;;;5066769;28;20058;-85
2022/09/17 19:09:27;;;;;;;4.70;1.40;;;;;;;;;;5064318;28;20099;-85
2022/09/17 19:17:43;;;;;;;6.05;1.38;;;;;;;;;;5061972;28;20464;-86
2022/09/17 19:20:38;;;;;;;5.50;1.58;;;;;;;;;;5064312;28;20090;-86
2022/09/17 19:23:06;;;;;;;6.35;1.83;;;;;;;;;;5032442;28;20048;-86
2022/09/17 19:25:36;;;;;;;3.33;1.55;;;;;;;;;;5064342;28;20067;-86
2022/09/17 19:28:09;;;;;;;6.97;1.50;;;;;;;;;;5063381;28;20052;-85
2022/09/17 19:31:10;;;;;;;6.95;2.10;;;;;;;;;;5066703;28;20032;-86
2022/09/17 19:34:01;;;;;;;5.25;1.60;;;;;;;;;;5069532;28;20112;-86
2022/09/17 19:36:29;;;;;;;6.20;1.55;;;;;;;;;;5065830;28;20498;-86
2022/09/17 19:39:02;;;;;;;3.90;1.50;;;;;;;;;;5052649;28;20041;-86
2022/09/17 19:41:32;;;;;;;4.80;1.30;;;;;;;;;;5064972;28;20044;-86
2022/09/17 19:44:02;;;;;;;4.60;1.40;;;;;;;;;;5068264;28;20048;-86